Create Custom Reports and Graphics: Custom Report

Latest Observations

MWA Stations

15 Minute Data | America/Los_Angeles
as of 9/4/26 3:39 PM PDT
Station Date Time Temp (°F) RH (%) Dew Pt (°F) Wind Dir (°) Wind Spd (mph) Wind Gust (mph) Solar Rad (W/m2) Pressure (mb) Daily Min Temp (°F) Daily Max Temp (°F) Daily Max Wind (mph) Daily Rain (In) Yest MinT (°F) Yest MaxT (°F) Yest MaxGst (mph) Yest Precip (In) MinBV Day (V)
MWA Office 9/4/26 1530 85.0   0.2 19   1 38.2   1.0 SW | 222 15.5   2.5 27.6   4.2 704   2 1,007.7   0.6 56.5   0.8 86.7   1.1 28.5   3.9 0.00 55.7 85.6 24.6 0.00 12.4   0.0
MWA OPS 9/4/26 1530 82.3   0.6 23   2 41.2   2.3 SSW | 205 14.8   0.7 23.9   0.2 730   8 1,007.7   0.8 62.4   9.1 84.1   0.4 26.5   0.2 0.00 53.4 83.7 26.7 0.00 12.8   0.0
LV-PS 9/4/26 1530 88.9   1.0 17   0 38.4   0.7 NW | 314 4.8   0.7 9.2   4.6 710   29 1,004.9   0.3 57.9   0.9 89.7   1.0 12.9   3.7 0.00 57.0 90.3 27.8 0.00 12.7   0.0
JV-PS 9/4/26 1530 89.0   0.3 16   4 37.8   8.1 N | 4 4.7   1.3 9.0   1.3 715   1 1,004.9   0.3 58.3   1.8 90.2   0.5 20.6   9.2 0.00 56.6 89.7 20.0 0.00 12.8   0.0
BDVWA 9/4/26 1530 85.0   0.5 15   3 33.0   4.7 S | 175 11.8   2.0 20.8   2.6 746   7 1,005.2   0.8 60.7   2.2 85.7   0.8 25.2   6.4 0.00 58.4 86.7 21.5 0.00 12.8   0.0
Newberry Springs 9/4/26 1530 91.9   0.5 19   2 44.0   2.4 NNE | 15 3.4   1.2 8.8   0.9 736   0 1,005.7   0.6 66.2   0.7 92.9   0.0 21.0   1.5 0.00 66.9 94.8 26.7 0.00 12.9   0.0
Pinon Hills 9/4/26 1530 79.8   1.5 21   4 36.5   3.6 SW | 229 10.5   5.3 22.8   11.0 725   3 1,005.2   0.1 58.2   5.6 81.0   1.5 22.8   4.8 0.00 52.6 81.7 21.7 0.00 12.8   0.0
Helendale 9/4/26 1530 90.2   0.1 21   0 44.7   0.5 S | 173 9.3   0.5 16.9   1.3 670   4 1,005.6   0.7 54.9   4.9 91.0   0.6 17.3   2.0 0.00 59.9 91.6 24.6 0.00 12.7   0.0
Lenwood 9/4/26 1530 91.1   0.5 16   2 38.9   3.5 SW | 218 9.7   0.9 17.5   3.5 737   7 1,005.5   0.9 57.5   5.5 92.2   0.5 21.7   0.9 0.00 63.0 92.8 28.9 0.00 12.4   0.4
Oak Hills 9/4/26 1530 75.2   1.1 31   2 42.2   0.8 S | 175 8.8   0.1 21.3   0.9 717   5 1,008.0   0.0 53.2   0.2 77.1   2.0 25.4   2.6 0.00 53.4 75.1 22.8 0.00 12.9   0.0
Pipes Wash Canyon 9/4/26 1530 82.4   0.3 16   2 31.8   3.4 ENE | 78 3.7   0.9 15.3   0.4 719   7 1,004.1   0.4 57.6   2.5 83.4   0.5 22.1   5.0 0.00 55.1 83.9 17.1 0.00 12.8   0.0
Max     91.9 31 44.7 - 15.5 27.6 746 1,008.0 66.2 92.9 28.5 0.00 66.9 94.8 28.9 0.00 12.9
Avg     85.5 20 38.8 - 8.8 17.6 719 1,005.9 - - - - - - - - -
Min     75.2 15 31.8 - 3.4 8.8 670 1,004.1 53.2 77.1 12.9 0.00 52.6 75.1 17.1 0.00 12.4

Latest Observations

Map

15 Minute Data

Rainfall & ETo

MWA Stations

15 Minute Data | America/Los_Angeles
as of 9/4/26 3:39 PM PDT
Station Date Time Latest Rain (In) Daily Rain (In) Yest Precip (In) Month Precip (In) Season Precip (In) Daily ETo (in) Yest ETo (In) 7 Day ETo (in)
MWA Office 9/4/26 1530 0.00 0.00 0.00 0.00 0.00 0.184 0.26 1.91
MWA OPS 9/4/26 1530 0.00 0.00 0.00 0.00 0.00 0.203 0.28 2.11
LV-PS 9/4/26 1530 0.00 0.00 0.00 0.00 0.34 0.159 0.25 1.99
JV-PS 9/4/26 1530 0.00 0.00 0.00 0.00 0.06 0.173 0.24 1.96
BDVWA 9/4/26 1530 0.00 0.00 0.00 0.00 0.00 0.190 0.26 2.05
Newberry Springs 9/4/26 1530 0.00 0.00 0.00 0.00 1.97 0.182 0.30 2.28
Pinon Hills 9/4/26 1530 0.00 0.00 0.00 0.00 0.19 0.153 0.21 1.74
Helendale 9/4/26 1530 0.00 0.00 0.00 0.00 0.00 0.166 0.29 2.06
Lenwood 9/4/26 1530 0.00 0.00 0.00 0.00 0.09 0.180 0.30 2.13
Oak Hills 9/4/26 1530 0.00 0.00 0.00 0.00 0.00 0.164 0.22 1.74
Pipes Wash Canyon 9/4/26 1530 0.00 0.00 0.00 0.00 0.00 0.175 0.23 1.68
Max     0.00 0.00 0.00 0.00 1.97 0.203 0.30 2.28
Avg     0.00 - - - - - - -
Min     0.00 0.00 0.00 0.00 0.00 0.153 0.21 1.68